Time;durP1;ratioP1;P1;durP2;ratioP2;P2;SDS_P1;SDS_P2;PMS_P1;PMS_P2;Temp;Humidity;BMP_temperature;BMP_pressure;BME280_temperature;BME280_humidity;BME280_pressure;Samples;Min_cycle;Max_cycle;Signal;HPM_P1;HPM_P2
2023/03/20 00:01:28;;;;;;;18.85;13.32;;;6.80;92.10;;;;;;4993626;28;20493;-57
2023/03/20 00:03:56;;;;;;;21.98;14.48;;;6.70;92.20;;;;;;4993385;28;20054;-58
2023/03/20 00:06:24;;;;;;;26.38;15.18;;;6.80;93.00;;;;;;4992155;28;20113;-54
2023/03/20 00:08:51;;;;;;;19.52;13.95;;;6.80;93.30;;;;;;4993324;28;20065;-58
2023/03/20 00:11:29;;;;;;;18.92;14.38;;;6.80;93.90;;;;;;4993271;28;20026;-55
2023/03/20 00:14:16;;;;;;;26.27;14.20;;;6.80;93.20;;;;;;4993395;28;20410;-52
2023/03/20 00:16:44;;;;;;;18.02;13.57;;;7.00;93.20;;;;;;4993132;28;20046;-56
2023/03/20 00:19:16;;;;;;;16.60;12.80;;;7.00;92.70;;;;;;4991933;28;20608;-52
2023/03/20 00:21:44;;;;;;;21.98;13.57;;;7.00;92.10;;;;;;4992994;28;20363;-57
2023/03/20 00:24:10;;;;;;;18.00;13.30;;;7.00;91.70;;;;;;4992931;28;20064;-53
2023/03/20 00:26:37;;;;;;;17.27;12.23;;;7.10;91.70;;;;;;4992648;28;20469;-56
2023/03/20 00:29:05;;;;;;;20.75;13.30;;;7.00;91.40;;;;;;4991537;28;20030;-56
2023/03/20 00:31:36;;;;;;;17.00;13.55;;;7.00;91.00;;;;;;4991112;28;20485;-55
2023/03/20 00:34:05;;;;;;;18.83;12.23;;;6.90;91.50;;;;;;4992827;28;20026;-55
2023/03/20 00:36:31;;;;;;;16.05;12.35;;;6.90;92.30;;;;;;4992856;28;20088;-57
2023/03/20 00:38:57;;;;;;;21.10;14.90;;;6.90;93.00;;;;;;4992700;28;20562;-56
2023/03/20 00:41:37;;;;;;;19.70;13.43;;;6.90;93.30;;;;;;4992907;28;20030;-51
2023/03/20 00:44:30;;;;;;;25.00;13.30;;;6.90;93.30;;;;;;4992737;28;20028;-57
2023/03/20 00:47:02;;;;;;;21.90;12.90;;;6.90;92.90;;;;;;4992605;28;20032;-58
2023/03/20 00:49:33;;;;;;;19.40;14.55;;;6.90;92.60;;;;;;4992785;28;20021;-54
2023/03/20 00:52:00;;;;;;;23.33;14.10;;;6.90;93.10;;;;;;4992582;28;20025;-58
2023/03/20 00:54:26;;;;;;;20.23;14.13;;;6.80;93.30;;;;;;4992465;28;20022;-56
2023/03/20 00:56:59;;;;;;;25.23;14.38;;;6.80;93.50;;;;;;4992588;28;20562;-55
2023/03/20 00:59:35;;;;;;;21.95;13.02;;;6.80;93.60;;;;;;4992602;28;20129;-55
2023/03/20 01:02:01;;;;;;;16.42;12.45;;;6.90;93.40;;;;;;4992587;28;20022;-52
2023/03/20 01:04:35;;;;;;;20.00;13.52;;;6.90;93.00;;;;;;4992353;28;20022;-52
2023/03/20 01:07:00;;;;;;;;;;;6.90;93.20;;;;;;4992659;28;20390;-53
2023/03/20 01:09:26;;;;;;;19.60;12.65;;;7.00;92.40;;;;;;4991906;28;19912;-59
2023/03/20 01:11:52;;;;;;;19.75;13.80;;;7.00;92.60;;;;;;4991786;28;20036;-59
2023/03/20 01:14:18;;;;;;;19.02;15.40;;;7.00;92.90;;;;;;4992414;28;20022;-57
2023/03/20 01:16:43;;;;;;;21.15;13.77;;;7.10;92.80;;;;;;4992320;28;20117;-55
2023/03/20 01:19:14;;;;;;;18.30;14.25;;;7.00;92.10;;;;;;4992234;28;20031;-55
2023/03/20 01:21:40;;;;;;;21.40;15.05;;;7.00;92.00;;;;;;4990900;28;20369;-53
2023/03/20 01:24:06;;;;;;;15.98;13.23;;;7.10;93.50;;;;;;4992270;28;20403;-56
2023/03/20 01:26:36;;;;;;;19.33;14.30;;;7.10;93.00;;;;;;4990857;28;20033;-54
2023/03/20 01:29:15;;;;;;;19.88;13.60;;;7.10;93.80;;;;;;4992196;28;20077;-54
2023/03/20 01:31:41;;;;;;;14.77;12.25;;;7.20;93.60;;;;;;4990787;28;20126;-53
2023/03/20 01:34:09;;;;;;;20.60;12.75;;;7.30;93.20;;;;;;4991885;28;20125;-55
2023/03/20 01:36:37;;;;;;;18.02;14.02;;;7.30;92.10;;;;;;4991778;28;20054;-55
2023/03/20 01:39:03;;;;;;;17.63;12.80;;;7.30;92.00;;;;;;4991891;28;20030;-56
2023/03/20 01:41:30;;;;;;;26.05;14.00;;;7.30;92.50;;;;;;4993200;28;20023;-55
2023/03/20 01:43:56;;;;;;;21.38;14.52;;;7.30;93.00;;;;;;4995996;28;20708;-55
2023/03/20 01:46:30;;;;;;;17.42;13.93;;;7.30;93.20;;;;;;4995926;28;20069;-55
2023/03/20 01:49:19;;;;;;;19.35;14.25;;;7.30;93.80;;;;;;4995880;28;20077;-53
2023/03/20 01:51:49;;;;;;;18.25;15.07;;;7.20;95.00;;;;;;4958986;28;20042;-53
2023/03/20 01:54:32;;;;;;;20.50;16.00;;;7.20;95.90;;;;;;4995821;28;20019;-56
2023/03/20 01:57:05;;;;;;;23.98;15.80;;;7.20;96.70;;;;;;4995976;28;20029;-52
2023/03/20 01:59:40;;;;;;;17.52;13.68;;;7.20;96.70;;;;;;4995918;28;20026;-57
2023/03/20 02:02:08;;;;;;;22.52;15.45;;;7.20;97.10;;;;;;4995444;28;20113;-55
2023/03/20 02:04:42;;;;;;;18.30;15.02;;;7.30;97.30;;;;;;4995460;28;20111;-57
2023/03/20 02:07:09;;;;;;;;;;;7.30;97.00;;;;;;4995554;28;20022;-58
2023/03/20 02:09:35;;;;;;;20.65;15.07;;;7.30;97.20;;;;;;4995034;28;20380;-58
2023/03/20 02:12:02;;;;;;;20.08;15.90;;;7.40;97.40;;;;;;4995310;28;20027;-58
2023/03/20 02:14:29;;;;;;;20.55;15.18;;;7.40;97.60;;;;;;4994990;28;20041;-56
2023/03/20 02:16:55;;;;;;;18.92;15.63;;;7.40;97.00;;;;;;4994464;28;20053;-53
2023/03/20 02:19:36;;;;;;;19.50;14.88;;;7.40;97.40;;;;;;4994538;28;20026;-53
2023/03/20 02:22:34;;;;;;;22.55;15.43;;;7.40;97.60;;;;;;4994422;28;20101;-54
2023/03/20 02:25:27;;;;;;;25.23;15.35;;;7.30;97.40;;;;;;4994823;28;20382;-57
2023/03/20 02:27:59;;;;;;;23.10;16.10;;;7.40;98.30;;;;;;4994776;28;20042;-55
2023/03/20 02:30:30;;;;;;;22.52;14.90;;;7.50;98.60;;;;;;4993908;28;20081;-56
2023/03/20 02:33:20;;;;;;;26.05;15.43;;;7.50;98.50;;;;;;4995077;28;20026;-55
2023/03/20 02:36:18;;;;;;;19.10;15.23;;;7.50;98.20;;;;;;4994883;28;20073;-57
2023/03/20 02:39:17;;;;;;;21.25;14.40;;;7.50;98.50;;;;;;4994986;28;20023;-58
2023/03/20 02:42:10;;;;;;;23.50;15.77;;;7.50;98.60;;;;;;4968539;28;20125;-56
2023/03/20 02:44:38;;;;;;;21.80;15.20;;;7.60;99.00;;;;;;4980647;28;20047;-59
2023/03/20 02:47:13;;;;;;;20.58;14.77;;;7.60;98.80;;;;;;4994860;28;20022;-55
2023/03/20 02:50:01;;;;;;;20.02;14.35;;;7.60;98.50;;;;;;4994627;28;20022;-55
2023/03/20 02:52:41;;;;;;;21.13;15.68;;;7.70;97.20;;;;;;4994738;28;20023;-56
2023/03/20 02:55:27;;;;;;;19.85;14.23;;;7.70;96.80;;;;;;4994540;28;20084;-57
2023/03/20 02:57:59;;;;;;;19.42;14.52;;;7.70;96.40;;;;;;4994812;28;20026;-56
2023/03/20 03:00:36;;;;;;;16.80;13.25;;;7.70;96.50;;;;;;4994732;28;20386;-57
2023/03/20 03:03:11;;;;;;;19.00;14.68;;;7.80;96.70;;;;;;4994670;28;20034;-59
2023/03/20 03:05:55;;;;;;;26.50;17.02;;;7.80;97.20;;;;;;4993103;28;20034;-56
2023/03/20 03:08:25;;;;;;;22.58;16.17;;;7.90;97.80;;;;;;4994488;28;20037;-55
2023/03/20 03:10:58;;;;;;;17.55;14.80;;;8.00;98.20;;;;;;4994378;28;20371;-56
2023/03/20 03:13:28;;;;;;;21.15;17.50;;;8.10;98.20;;;;;;4994672;28;20077;-59
2023/03/20 03:15:57;;;;;;;24.92;15.93;;;8.20;97.80;;;;;;4994382;28;20701;-52
2023/03/20 03:18:25;;;;;;;18.55;15.80;;;8.20;97.90;;;;;;4994609;28;20088;-54
2023/03/20 03:20:56;;;;;;;23.00;16.98;;;8.20;97.50;;;;;;4994216;28;20026;-58
2023/03/20 03:23:32;;;;;;;22.80;16.73;;;8.20;97.20;;;;;;4994283;28;20029;-57
2023/03/20 03:26:00;;;;;;;21.02;17.67;;;8.20;97.50;;;;;;4994102;28;20654;-57
2023/03/20 03:28:48;;;;;;;23.80;17.33;;;8.20;97.40;;;;;;4993900;28;20056;-54
2023/03/20 03:31:16;;;;;;;20.40;18.20;;;8.20;98.10;;;;;;4994355;28;20046;-54
2023/03/20 03:33:47;;;;;;;20.27;17.15;;;8.20;98.00;;;;;;4992663;28;20109;-52
2023/03/20 03:36:41;;;;;;;22.08;19.48;;;8.20;97.50;;;;;;4994258;28;20347;-54
2023/03/20 03:39:23;;;;;;;26.02;18.25;;;8.10;97.70;;;;;;4994026;28;20038;-56
2023/03/20 03:42:00;;;;;;;21.83;17.95;;;8.10;98.30;;;;;;4993710;28;20034;-55
2023/03/20 03:44:32;;;;;;;19.15;17.20;;;8.10;98.60;;;;;;4993942;28;20026;-55
2023/03/20 03:47:03;;;;;;;22.02;17.52;;;8.10;97.90;;;;;;4993653;28;20026;-54
2023/03/20 03:49:39;;;;;;;19.63;17.02;;;8.10;97.70;;;;;;4993760;28;20026;-53
2023/03/20 03:52:12;;;;;;;25.95;16.95;;;8.00;97.30;;;;;;4993641;28;20105;-54
2023/03/20 03:54:47;;;;;;;20.10;16.40;;;8.10;97.60;;;;;;4993496;28;20445;-56
2023/03/20 03:57:17;;;;;;;20.83;18.38;;;8.00;97.50;;;;;;4993825;28;20030;-57
2023/03/20 03:59:48;;;;;;;21.17;18.17;;;8.10;98.30;;;;;;4993443;28;20433;-57
2023/03/20 04:02:18;;;;;;;24.83;19.23;;;8.10;98.00;;;;;;4993538;28;20121;-56
2023/03/20 04:04:48;;;;;;;27.60;20.63;;;8.10;97.70;;;;;;4991152;28;20390;-57
2023/03/20 04:07:14;;;;;;;31.58;18.80;;;8.00;97.70;;;;;;4993432;28;20113;-55
2023/03/20 04:09:40;;;;;;;22.52;20.00;;;8.10;98.20;;;;;;4993160;28;20022;-57
2023/03/20 04:12:34;;;;;;;23.30;19.77;;;8.10;97.90;;;;;;4993342;28;20485;-57
2023/03/20 04:15:00;;;;;;;29.60;21.50;;;8.10;98.00;;;;;;4993403;28;20489;-52
2023/03/20 04:17:26;;;;;;;28.23;21.42;;;8.10;98.30;;;;;;4993180;28;20077;-56
2023/03/20 04:19:51;;;;;;;25.50;20.25;;;8.10;98.80;;;;;;4993115;28;20026;-54
2023/03/20 04:22:17;;;;;;;25.58;21.33;;;8.10;98.40;;;;;;4993117;28;20037;-55
2023/03/20 04:24:43;;;;;;;24.50;20.27;;;8.20;98.70;;;;;;4993040;28;20034;-56
2023/03/20 04:27:10;;;;;;;24.15;20.08;;;8.20;98.40;;;;;;4992876;28;20092;-57
2023/03/20 04:29:36;;;;;;;26.02;20.02;;;8.20;98.30;;;;;;4992505;28;20023;-58
2023/03/20 04:32:02;;;;;;;26.23;20.33;;;8.20;98.20;;;;;;4992908;28;20660;-52
2023/03/20 04:34:28;;;;;;;24.08;21.38;;;8.20;98.30;;;;;;4992864;28;20050;-54
2023/03/20 04:36:54;;;;;;;25.20;21.17;;;8.30;98.40;;;;;;4992837;28;20133;-55
2023/03/20 04:39:20;;;;;;;25.17;20.58;;;8.30;98.20;;;;;;4991561;28;20129;-54
2023/03/20 04:41:46;;;;;;;29.00;20.23;;;8.30;98.00;;;;;;4992615;28;20077;-56
2023/03/20 04:44:11;;;;;;;24.65;21.13;;;8.40;97.70;;;;;;4992708;28;20022;-57
2023/03/20 04:46:37;;;;;;;22.42;19.77;;;8.40;97.20;;;;;;4992522;28;20062;-57
2023/03/20 04:49:03;;;;;;;26.85;19.67;;;8.40;96.70;;;;;;4992733;28;20643;-56
2023/03/20 04:51:29;;;;;;;23.45;20.20;;;8.50;96.40;;;;;;4992910;28;20027;-52
2023/03/20 04:53:54;;;;;;;21.23;18.92;;;8.50;96.40;;;;;;4992652;28;20588;-56
2023/03/20 04:56:20;;;;;;;23.05;19.52;;;8.50;96.40;;;;;;4992630;28;20018;-55
2023/03/20 04:58:46;;;;;;;25.83;18.50;;;8.50;96.40;;;;;;4992487;28;20026;-57
2023/03/20 05:01:11;;;;;;;21.23;17.50;;;8.50;96.20;;;;;;4992335;28;20019;-55
2023/03/20 05:03:38;;;;;;;20.35;17.77;;;8.50;96.50;;;;;;4992346;28;20026;-57
2023/03/20 05:06:04;;;;;;;22.55;19.02;;;8.50;96.50;;;;;;4992649;28;20034;-54
2023/03/20 05:08:30;;;;;;;23.48;18.15;;;8.40;96.10;;;;;;4992534;28;20538;-52
2023/03/20 05:10:56;;;;;;;21.38;17.70;;;8.40;97.00;;;;;;4992352;28;20026;-56
2023/03/20 05:13:22;;;;;;;22.40;17.48;;;8.40;96.60;;;;;;4992384;28;20027;-55
2023/03/20 05:15:47;;;;;;;18.48;15.98;;;8.40;97.00;;;;;;4991832;28;20026;-56
2023/03/20 05:18:13;;;;;;;21.42;17.15;;;8.40;96.50;;;;;;4992202;28;20026;-54
2023/03/20 05:20:45;;;;;;;21.30;17.88;;;8.40;96.80;;;;;;4992196;28;20065;-56
2023/03/20 05:23:10;;;;;;;22.13;16.40;;;8.40;96.90;;;;;;4992253;28;20027;-54
2023/03/20 05:25:36;;;;;;;22.23;17.13;;;8.40;97.30;;;;;;4992095;28;20019;-58
2023/03/20 05:28:02;;;;;;;18.42;15.38;;;8.40;97.40;;;;;;4991916;28;20085;-55
2023/03/20 05:30:27;;;;;;;19.65;16.60;;;8.40;97.70;;;;;;4992227;28;20038;-55
2023/03/20 05:32:53;;;;;;;18.58;15.65;;;8.50;97.60;;;;;;4992103;28;20177;-54
2023/03/20 05:35:19;;;;;;;18.50;15.48;;;8.60;97.20;;;;;;4992193;28;20073;-57
2023/03/20 05:37:45;;;;;;;18.65;15.63;;;8.60;96.80;;;;;;4992056;28;20088;-58
2023/03/20 05:40:13;;;;;;;16.25;14.57;;;8.60;97.10;;;;;;4992132;28;20408;-54
2023/03/20 05:42:39;;;;;;;18.75;14.35;;;8.60;97.20;;;;;;4991885;28;20731;-54
2023/03/20 05:45:06;;;;;;;17.00;13.93;;;8.60;97.20;;;;;;4990837;28;20422;-57
2023/03/20 05:47:31;;;;;;;15.85;13.18;;;8.50;97.10;;;;;;4992143;28;20106;-56
2023/03/20 05:49:57;;;;;;;20.40;13.20;;;8.60;97.20;;;;;;4991978;28;20066;-53
2023/03/20 05:52:23;;;;;;;15.05;12.35;;;8.60;97.30;;;;;;4992833;28;20018;-58
2023/03/20 05:54:49;;;;;;;17.05;12.57;;;8.60;97.10;;;;;;4991720;28;20027;-55
2023/03/20 05:57:16;;;;;;;17.40;11.75;;;8.60;96.90;;;;;;4991635;28;20488;-53
2023/03/20 05:59:42;;;;;;;18.17;12.35;;;8.60;96.90;;;;;;4991775;28;20631;-55
2023/03/20 06:02:08;;;;;;;18.60;12.73;;;8.60;97.00;;;;;;4991936;28;20054;-52
2023/03/20 06:04:36;;;;;;;14.02;12.63;;;8.60;96.90;;;;;;4988655;28;20023;-56
2023/03/20 06:07:02;;;;;;;19.73;12.93;;;8.60;97.20;;;;;;4991023;28;20026;-54
2023/03/20 06:09:27;;;;;;;12.85;11.30;;;8.60;97.10;;;;;;4991195;28;20026;-54
2023/03/20 06:11:53;;;;;;;17.50;12.25;;;8.60;97.50;;;;;;4991470;28;20037;-52
2023/03/20 06:14:19;;;;;;;14.15;10.93;;;8.60;97.30;;;;;;4991106;28;20057;-54
2023/03/20 06:16:45;;;;;;;12.05;10.85;;;8.60;97.40;;;;;;4987718;28;20061;-51
2023/03/20 06:19:11;;;;;;;11.82;10.38;;;8.70;97.10;;;;;;4988151;28;20030;-53
2023/03/20 06:21:37;;;;;;;12.73;10.10;;;8.70;97.00;;;;;;4991007;28;20095;-52
2023/03/20 06:24:02;;;;;;;11.65;10.18;;;8.70;96.90;;;;;;4991437;28;20045;-55
2023/03/20 06:26:28;;;;;;;12.00;10.35;;;8.70;97.10;;;;;;4991115;28;20035;-56
2023/03/20 06:28:54;;;;;;;12.15;10.77;;;8.70;96.60;;;;;;4993044;28;20092;-53
2023/03/20 06:31:20;;;;;;;12.85;9.93;;;8.70;96.90;;;;;;4995101;28;20023;-54
2023/03/20 06:33:46;;;;;;;13.52;11.30;;;8.70;97.00;;;;;;4993568;28;20029;-54
2023/03/20 06:36:12;;;;;;;15.27;10.90;;;8.70;96.90;;;;;;4994976;28;20023;-57
2023/03/20 06:38:37;;;;;;;14.73;11.30;;;8.80;96.60;;;;;;4994649;28;20073;-54
2023/03/20 06:41:03;;;;;;;13.48;12.07;;;8.80;96.60;;;;;;4994689;28;20034;-56
2023/03/20 06:43:29;;;;;;;14.05;10.82;;;8.80;95.70;;;;;;4994628;28;20034;-55
2023/03/20 06:45:55;;;;;;;10.68;9.57;;;8.80;96.30;;;;;;4993733;28;20041;-56
2023/03/20 06:48:21;;;;;;;14.55;12.05;;;8.90;96.10;;;;;;4992821;28;20023;-58
2023/03/20 06:50:48;;;;;;;14.07;10.18;;;8.90;95.20;;;;;;4994147;28;20026;-55
2023/03/20 06:53:14;;;;;;;13.00;9.63;;;8.90;95.90;;;;;;4994334;28;20002;-55
2023/03/20 06:55:40;;;;;;;11.63;10.43;;;9.00;94.80;;;;;;4993962;28;20113;-52
2023/03/20 06:58:05;;;;;;;10.80;9.70;;;9.00;94.40;;;;;;4993961;28;20113;-57
2023/03/20 07:00:31;;;;;;;12.70;9.98;;;9.10;94.10;;;;;;4993936;28;20034;-54
2023/03/20 07:02:57;;;;;;;14.80;10.27;;;9.10;94.20;;;;;;4994112;28;20030;-56
2023/03/20 07:05:23;;;;;;;10.00;8.95;;;9.10;94.10;;;;;;4993780;28;20640;-58
2023/03/20 07:07:48;;;;;;;11.07;9.98;;;9.10;94.00;;;;;;4993068;28;20033;-58
2023/03/20 07:10:14;;;;;;;12.20;10.00;;;9.00;94.20;;;;;;4993601;28;20029;-56
2023/03/20 07:12:40;;;;;;;14.75;11.40;;;9.10;94.00;;;;;;4992808;28;20064;-53
2023/03/20 07:15:06;;;;;;;13.05;10.43;;;9.10;94.10;;;;;;4994202;28;20027;-52
2023/03/20 07:17:31;;;;;;;14.50;10.25;;;9.10;95.10;;;;;;4994304;28;20033;-56
2023/03/20 07:19:57;;;;;;;11.77;10.52;;;9.20;95.20;;;;;;4993864;28;20504;-58
2023/03/20 07:22:25;;;;;;;13.00;10.80;;;9.20;94.50;;;;;;4993875;28;20074;-56
2023/03/20 07:24:51;;;;;;;11.95;10.43;;;9.20;95.00;;;;;;4993544;28;20369;-55
2023/03/20 07:27:17;;;;;;;10.95;9.00;;;9.30;94.00;;;;;;4993539;28;20049;-52
2023/03/20 07:29:43;;;;;;;11.45;9.05;;;9.30;93.70;;;;;;4993935;28;20026;-52
2023/03/20 07:32:10;;;;;;;10.98;9.93;;;9.30;93.10;;;;;;4994072;28;20054;-56
2023/03/20 07:34:36;;;;;;;10.25;9.13;;;9.30;94.30;;;;;;4993806;28;20019;-55
2023/03/20 07:37:03;;;;;;;9.38;8.38;;;9.40;93.20;;;;;;4993863;28;20113;-55
2023/03/20 07:39:29;;;;;;;13.15;9.98;;;9.50;91.90;;;;;;4991371;28;20026;-56
2023/03/20 07:41:55;;;;;;;10.38;9.27;;;9.50;92.20;;;;;;4992468;28;20057;-58
2023/03/20 07:44:21;;;;;;;8.73;7.85;;;9.50;90.60;;;;;;4993282;28;20023;-58
2023/03/20 07:46:46;;;;;;;11.57;9.23;;;9.50;91.50;;;;;;4993289;28;20120;-56
2023/03/20 07:49:13;;;;;;;10.13;8.80;;;9.50;91.30;;;;;;4993300;28;20681;-56
2023/03/20 07:51:39;;;;;;;12.27;9.77;;;9.50;91.50;;;;;;4993273;28;20562;-57
2023/03/20 07:54:05;;;;;;;15.85;8.27;;;9.50;91.70;;;;;;4993313;28;20037;-59
2023/03/20 07:56:30;;;;;;;9.82;8.65;;;9.50;91.40;;;;;;4992243;28;20022;-56
2023/03/20 07:58:56;;;;;;;14.70;8.82;;;9.50;92.10;;;;;;4993300;28;20118;-58
2023/03/20 08:01:22;;;;;;;9.10;8.20;;;9.50;91.10;;;;;;4993263;28;20509;-56
2023/03/20 08:03:47;;;;;;;10.55;9.10;;;9.50;92.10;;;;;;4992764;28;20500;-52
2023/03/20 08:06:13;;;;;;;10.57;8.45;;;9.60;89.00;;;;;;4992766;28;20026;-53
2023/03/20 08:08:39;;;;;;;9.88;7.47;;;9.60;92.50;;;;;;4991093;28;20022;-54
2023/03/20 08:11:04;;;;;;;10.77;8.38;;;9.70;89.30;;;;;;4992728;28;20026;-57
2023/03/20 08:13:30;;;;;;;9.48;7.53;;;9.80;99.90;;;;;;4992613;28;20072;-55
2023/03/20 08:15:56;;;;;;;8.40;7.53;;;9.80;79.70;;;;;;4992579;28;20026;-55
2023/03/20 08:18:22;;;;;;;8.02;7.10;;;9.70;82.00;;;;;;4992184;28;20114;-57
2023/03/20 08:20:51;;;;;;;7.07;6.00;;;9.60;78.20;;;;;;4992082;28;20109;-55
2023/03/20 08:23:17;;;;;;;11.80;7.35;;;9.70;79.30;;;;;;4992400;28;20113;-53
2023/03/20 08:25:47;;;;;;;7.70;6.40;;;9.70;82.40;;;;;;4992111;28;20034;-56
2023/03/20 08:28:13;;;;;;;11.48;6.60;;;9.70;88.30;;;;;;4990872;28;20093;-55
2023/03/20 08:30:39;;;;;;;12.20;6.60;;;9.70;81.30;;;;;;4992096;28;20215;-58
2023/03/20 08:33:05;;;;;;;12.07;8.43;;;9.70;81.00;;;;;;4992578;28;20105;-56
2023/03/20 08:35:30;;;;;;;14.02;8.63;;;9.60;80.90;;;;;;4992512;28;20156;-56
2023/03/20 08:37:56;;;;;;;8.00;6.72;;;9.60;81.30;;;;;;4992114;28;20026;-58
2023/03/20 08:40:22;;;;;;;10.23;6.45;;;9.60;82.40;;;;;;4992490;28;20101;-53
2023/03/20 08:42:48;;;;;;;17.45;6.32;;;9.60;82.70;;;;;;4992660;28;20049;-55
2023/03/20 08:45:14;;;;;;;7.95;6.45;;;9.60;84.60;;;;;;4992146;28;20030;-58
2023/03/20 08:47:39;;;;;;;11.15;7.05;;;9.70;93.60;;;;;;4992365;28;20029;-59
2023/03/20 08:50:06;;;;;;;16.40;11.20;;;9.60;99.90;;;;;;4992444;28;20033;-57
2023/03/20 08:52:32;;;;;;;11.93;6.78;;;9.60;87.50;;;;;;4991953;28;20577;-58
2023/03/20 08:55:00;;;;;;;10.02;6.93;;;9.60;96.00;;;;;;4992251;28;20511;-57
2023/03/20 08:57:26;;;;;;;7.35;6.07;;;9.70;98.00;;;;;;4992285;28;20034;-58
2023/03/20 08:59:52;;;;;;;5.85;5.25;;;9.60;95.50;;;;;;4991068;28;20076;-58
2023/03/20 09:02:17;;;;;;;7.65;6.05;;;9.60;99.90;;;;;;4992143;28;20030;-58
2023/03/20 09:04:43;;;;;;;6.43;5.82;;;9.60;99.90;;;;;;4992054;28;20072;-54
2023/03/20 09:07:09;;;;;;;6.22;5.63;;;9.70;99.90;;;;;;4992156;28;20031;-57
2023/03/20 09:09:35;;;;;;;17.13;11.05;;;9.70;99.90;;;;;;4992157;28;20038;-55
2023/03/20 09:12:01;;;;;;;8.48;6.05;;;9.70;99.90;;;;;;4991812;28;20088;-51
2023/03/20 09:14:27;;;;;;;8.05;6.93;;;9.70;99.90;;;;;;4991216;28;20018;-54
2023/03/20 09:16:53;;;;;;;7.38;6.57;;;9.80;99.90;;;;;;4991241;28;20029;-59
2023/03/20 09:19:19;;;;;;;7.40;6.00;;;9.80;99.90;;;;;;4990489;28;20054;-55
2023/03/20 09:21:45;;;;;;;7.88;5.60;;;9.80;99.90;;;;;;4990748;28;20081;-58
2023/03/20 09:24:11;;;;;;;5.50;5.00;;;9.70;99.90;;;;;;4990145;28;20076;-53
2023/03/20 09:26:37;;;;;;;8.23;6.80;;;9.80;99.90;;;;;;4991123;28;20113;-57
2023/03/20 09:29:04;;;;;;;7.10;6.38;;;9.80;99.90;;;;;;4991748;28;20026;-59
2023/03/20 09:31:30;;;;;;;7.53;6.55;;;9.70;99.90;;;;;;4991898;28;20401;-56
2023/03/20 09:33:56;;;;;;;7.15;5.75;;;9.80;99.90;;;;;;4991801;28;20034;-60
2023/03/20 09:36:21;;;;;;;5.70;4.93;;;9.80;99.90;;;;;;4991362;28;20027;-59
2023/03/20 09:38:47;;;;;;;9.65;4.85;;;9.90;99.90;;;;;;4991358;28;20406;-58
2023/03/20 09:41:21;;;;;;;6.63;6.03;;;9.90;99.90;;;;;;4991388;28;20026;-54
2023/03/20 09:44:07;;;;;;;6.32;5.72;;;10.00;99.90;;;;;;4990154;28;20030;-56
2023/03/20 09:47:10;;;;;;;7.80;5.63;;;10.00;99.90;;;;;;4991140;28;20030;-58
2023/03/20 09:49:59;;;;;;;6.40;5.72;;;9.90;99.90;;;;;;4990969;28;20019;-58
2023/03/20 09:52:43;;;;;;;6.05;5.47;;;10.20;99.90;;;;;;4991300;28;20038;-56
2023/03/20 09:55:20;;;;;;;5.43;4.93;;;10.30;99.90;;;;;;4990780;28;20018;-56
2023/03/20 09:57:51;;;;;;;5.10;4.55;;;10.40;99.90;;;;;;4990816;28;20668;-52
2023/03/20 10:00:21;;;;;;;5.50;5.00;;;10.40;99.90;;;;;;4990841;28;20037;-50
2023/03/20 10:03:07;;;;;;;7.30;5.18;;;10.50;99.90;;;;;;4992588;28;20026;-59
2023/03/20 10:05:47;;;;;;;7.35;5.30;;;10.50;99.90;;;;;;4995311;28;20110;-55
2023/03/20 10:08:15;;;;;;;5.18;4.43;;;10.60;99.90;;;;;;4995241;28;20118;-55
2023/03/20 10:11:01;;;;;;;5.95;5.13;;;10.50;99.90;;;;;;4994915;28;20054;-54
2023/03/20 10:13:47;;;;;;;5.90;5.13;;;10.60;99.90;;;;;;4995464;28;20474;-52
2023/03/20 10:16:36;;;;;;;5.50;5.00;;;10.60;99.90;;;;;;4991391;28;20085;-55
2023/03/20 10:19:07;;;;;;;6.88;5.10;;;10.50;99.90;;;;;;4994655;28;20026;-52
2023/03/20 10:21:55;;;;;;;5.68;5.18;;;10.50;99.90;;;;;;4994249;28;20701;-57
2023/03/20 10:25:14;;;;;;;5.88;5.10;;;10.40;99.90;;;;;;4983872;28;20038;-53
2023/03/20 10:27:46;;;;;;;5.35;4.75;;;10.60;99.90;;;;;;4984773;28;20179;-52
2023/03/20 10:30:18;;;;;;;12.63;7.53;;;10.50;99.90;;;;;;4994977;28;20121;-58
2023/03/20 10:33:07;;;;;;;109.80;37.72;;;10.40;99.90;;;;;;4994675;28;20031;-55
2023/03/20 10:35:50;;;;;;;7.85;6.05;;;10.50;99.90;;;;;;4995126;28;20109;-55
2023/03/20 10:38:25;;;;;;;49.47;19.60;;;10.60;99.90;;;;;;4994780;28;20445;-58
2023/03/20 10:40:53;;;;;;;25.25;11.68;;;10.50;99.90;;;;;;4994518;28;21035;-56
2023/03/20 10:43:34;;;;;;;56.17;19.88;;;10.60;99.90;;;;;;4994926;28;20027;-54
2023/03/20 10:46:15;;;;;;;14.48;8.15;;;10.70;99.90;;;;;;4994074;28;20145;-52
2023/03/20 10:48:45;;;;;;;7.35;6.43;;;10.80;99.90;;;;;;4993868;28;20047;-56
2023/03/20 10:51:16;;;;;;;7.72;6.80;;;10.90;99.90;;;;;;4994475;28;20031;-58
2023/03/20 10:53:50;;;;;;;14.63;8.60;;;10.80;99.90;;;;;;4993986;28;20061;-57
2023/03/20 10:56:35;;;;;;;7.05;5.13;;;10.80;99.90;;;;;;4994032;28;20461;-59
2023/03/20 10:59:23;;;;;;;7.80;6.38;;;10.90;99.90;;;;;;4994105;28;20030;-56
2023/03/20 11:01:49;;;;;;;5.30;4.80;;;10.80;99.90;;;;;;4993647;28;20542;-58
2023/03/20 11:04:14;;;;;;;6.50;5.25;;;10.90;99.90;;;;;;4994361;28;20118;-54
2023/03/20 11:06:48;;;;;;;9.75;7.10;;;10.80;99.90;;;;;;4993851;28;20026;-55
2023/03/20 11:09:23;;;;;;;34.72;21.85;;;10.60;99.90;;;;;;4994277;28;20054;-56
2023/03/20 11:11:55;;;;;;;62.25;39.15;;;10.40;99.90;;;;;;4993632;28;20177;-57
2023/03/20 11:14:23;;;;;;;40.22;35.75;;;10.50;99.90;;;;;;4993284;28;20038;-55
2023/03/20 11:16:52;;;;;;;24.30;15.65;;;10.40;99.90;;;;;;4993617;28;20031;-58
2023/03/20 11:19:20;;;;;;;12.52;8.82;;;10.30;99.90;;;;;;4987805;28;20053;-58
2023/03/20 11:21:47;;;;;;;8.93;7.22;;;10.50;99.90;;;;;;4961768;28;20035;-56
2023/03/20 11:24:26;;;;;;;7.45;6.25;;;10.60;99.90;;;;;;4964339;28;20043;-58
2023/03/20 11:26:52;;;;;;;30.02;18.20;;;10.60;99.90;;;;;;4966194;28;20461;-57
2023/03/20 11:29:29;;;;;;;8.88;6.90;;;10.60;99.90;;;;;;4965558;28;20019;-56
2023/03/20 11:32:22;;;;;;;6.65;5.93;;;10.70;99.90;;;;;;4973296;28;20068;-58
2023/03/20 11:34:48;;;;;;;9.40;7.77;;;10.70;99.90;;;;;;4963950;28;20031;-56
2023/03/20 11:37:24;;;;;;;14.85;10.45;;;10.60;99.90;;;;;;4964042;28;20038;-56
2023/03/20 11:39:58;;;;;;;9.85;7.60;;;10.50;99.90;;;;;;4981250;28;20058;-58
2023/03/20 11:42:27;;;;;;;12.13;8.23;;;10.50;99.90;;;;;;4981083;28;20034;-58
2023/03/20 11:45:16;;;;;;;8.05;7.10;;;10.60;99.90;;;;;;4970077;28;20038;-57
2023/03/20 11:47:44;;;;;;;9.88;7.30;;;10.60;99.90;;;;;;4979125;28;20071;-58
2023/03/20 11:50:30;;;;;;;12.40;9.57;;;10.70;99.90;;;;;;4983301;28;20417;-56
2023/03/20 11:52:56;;;;;;;22.17;11.82;;;10.70;99.90;;;;;;4967297;28;20852;-58
2023/03/20 11:55:33;;;;;;;13.25;10.38;;;10.60;99.90;;;;;;4963357;28;20046;-57
2023/03/20 11:58:38;;;;;;;19.73;11.32;;;10.70;99.90;;;;;;4982366;28;20068;-58
2023/03/20 12:01:08;;;;;;;17.63;9.82;;;10.60;99.90;;;;;;4982593;28;20026;-55
2023/03/20 12:03:59;;;;;;;16.98;9.75;;;10.60;99.90;;;;;;4981130;28;20638;-58
2023/03/20 12:06:26;;;;;;;7.72;6.65;;;10.80;99.90;;;;;;4990810;28;20736;-57
2023/03/20 12:08:59;;;;;;;9.35;7.03;;;10.90;99.90;;;;;;4993053;28;20034;-56
2023/03/20 12:11:56;;;;;;;8.25;6.97;;;11.30;99.90;;;;;;4992819;28;20033;-56
2023/03/20 12:14:36;;;;;;;8.10;7.30;;;11.60;99.90;;;;;;4992866;28;20046;-55
2023/03/20 12:17:28;;;;;;;9.02;8.05;;;11.60;99.90;;;;;;4992523;28;20018;-58
2023/03/20 12:20:00;;;;;;;11.80;6.60;;;11.70;99.90;;;;;;4991698;28;20050;-58
2023/03/20 12:22:41;;;;;;;7.20;6.43;;;11.80;99.90;;;;;;4992844;28;20205;-58
2023/03/20 12:25:49;;;;;;;11.95;7.60;;;12.00;99.90;;;;;;4992794;28;20103;-55
2023/03/20 12:28:37;;;;;;;14.25;9.43;;;12.60;99.90;;;;;;4992164;28;20050;-58
2023/03/20 12:31:29;;;;;;;14.52;7.88;;;12.90;99.90;;;;;;4992788;28;20105;-55
2023/03/20 12:34:15;;;;;;;9.63;6.25;;;13.40;99.90;;;;;;4992703;28;20034;-58
2023/03/20 12:36:47;;;;;;;9.35;5.88;;;13.80;99.90;;;;;;4992663;28;20019;-56
2023/03/20 12:39:13;;;;;;;23.02;11.70;;;14.70;99.90;;;;;;4992415;28;20030;-53
2023/03/20 12:42:08;;;;;;;55.08;22.55;;;14.50;99.90;;;;;;4992261;28;20094;-58
2023/03/20 12:45:04;;;;;;;71.70;30.45;;;14.60;99.90;;;;;;4992448;28;20037;-54
2023/03/20 12:47:31;;;;;;;6.78;4.65;;;14.60;99.90;;;;;;4952266;28;20061;-58
2023/03/20 12:50:03;;;;;;;6.40;5.80;;;14.90;99.90;;;;;;4973226;28;20369;-57
2023/03/20 12:52:47;;;;;;;5.45;4.90;;;14.60;99.90;;;;;;4973253;28;20050;-55
2023/03/20 12:55:36;;;;;;;;;;;14.20;99.90;;;;;;4972181;28;20500;-57
2023/03/20 12:58:21;;;;;;;16.02;9.85;;;13.40;99.90;;;;;;4969875;28;19918;-58
2023/03/20 13:01:05;;;;;;;16.30;10.82;;;13.60;99.90;;;;;;4972951;28;20023;-56
2023/03/20 13:03:58;;;;;;;5.68;5.15;;;13.70;99.90;;;;;;4987612;28;20035;-57